createdAt,value
2022-12-23T00:00:19.989Z,100263.91
2022-12-23T00:02:56.183Z,100263.91
2022-12-23T00:05:22.875Z,100264.78
2022-12-23T00:07:55.321Z,100274.41
2022-12-23T00:10:22.648Z,100268.28
2022-12-23T00:13:08.230Z,100276.16
2022-12-23T00:15:34.713Z,100280.53
2022-12-23T00:18:01.263Z,100278.78
2022-12-23T00:20:34.382Z,100286.66
2022-12-23T00:23:07.480Z,100288.44
2022-12-23T00:25:44.463Z,100289.31
2022-12-23T00:28:15.000Z,100294.59
2022-12-23T00:30:56.354Z,100295.47
2022-12-23T00:33:25.676Z,100297.22
2022-12-23T00:35:53.109Z,100296.31
2022-12-23T00:38:39.606Z,100301.56
2022-12-23T00:41:29.341Z,100300.72
2022-12-23T00:43:58.399Z,100296.34
2022-12-23T00:46:25.607Z,100298.97
2022-12-23T00:49:11.142Z,100301.59
2022-12-23T00:51:37.563Z,100303.34
2022-12-23T00:54:06.797Z,100312.97
2022-12-23T00:56:33.813Z,100312.97
2022-12-23T00:59:00.545Z,100317.34
2022-12-23T01:01:45.967Z,100322.63
2022-12-23T01:04:32.735Z,100321.72
2022-12-23T01:07:03.387Z,100321.75
2022-12-23T01:09:29.837Z,100321.75
2022-12-23T01:11:57.338Z,100315.63
2022-12-23T01:14:24.356Z,100322.63
2022-12-23T01:16:50.891Z,100331.41
2022-12-23T01:19:17.461Z,100329.63
2022-12-23T01:21:44.036Z,100324.41
2022-12-23T01:24:10.531Z,100331.41
2022-12-23T01:26:37.010Z,100336.66
2022-12-23T01:29:03.417Z,100347.13
2022-12-23T01:31:30.203Z,100344.50
2022-12-23T01:33:56.959Z,100350.66
2022-12-23T01:36:23.806Z,100355.03
2022-12-23T01:38:50.283Z,100356.81
2022-12-23T01:41:39.598Z,100362.94
2022-12-23T01:44:43.573Z,100364.69
2022-12-23T01:47:14.728Z,100359.44
2022-12-23T01:49:42.682Z,100357.66
2022-12-23T01:52:10.806Z,100373.44
2022-12-23T01:54:37.845Z,100377.81
2022-12-23T01:57:04.524Z,100379.56
2022-12-23T01:59:49.597Z,100385.69
2022-12-23T02:02:34.509Z,100391.84
2022-12-23T02:05:02.033Z,100395.34
2022-12-23T02:07:47.631Z,100395.31
2022-12-23T02:10:15.984Z,100404.09
2022-12-23T02:12:52.957Z,100411.97
2022-12-23T02:15:57.319Z,100417.25
2022-12-23T02:18:29.442Z,100407.59
2022-12-23T02:20:58.868Z,100404.06
2022-12-23T02:23:34.488Z,100409.34
2022-12-23T02:26:20.573Z,100415.47
2022-12-23T02:28:46.896Z,100419.84
2022-12-23T02:31:29.277Z,100420.72
2022-12-23T02:34:07.995Z,100425.97
2022-12-23T02:36:34.382Z,100421.59
2022-12-23T02:39:14.900Z,100425.09
2022-12-23T02:41:55.240Z,100437.34
2022-12-23T02:44:35.159Z,100445.22
2022-12-23T02:47:10.231Z,100442.59
2022-12-23T02:49:41.446Z,100447.84
2022-12-23T02:52:13.997Z,100446.13
2022-12-23T02:54:46.973Z,100455.75
2022-12-23T02:57:17.126Z,100453.13
2022-12-23T02:59:53.938Z,100467.09
2022-12-23T03:02:20.528Z,100461.88
2022-12-23T03:04:47.041Z,100467.13
2022-12-23T03:07:39.683Z,100465.34
2022-12-23T03:10:26.200Z,100461.88
2022-12-23T03:13:02.663Z,100464.47
2022-12-23T03:15:57.252Z,100472.38
2022-12-23T03:18:29.515Z,100464.50
2022-12-23T03:21:05.888Z,100462.72
2022-12-23T03:23:59.877Z,100464.50
2022-12-23T03:26:40.479Z,100465.34
2022-12-23T03:29:27.150Z,100456.63
2022-12-23T03:31:57.532Z,100453.13
2022-12-23T03:34:29.940Z,100461.88
2022-12-23T03:37:00.674Z,100453.97
2022-12-23T03:39:34.527Z,100463.63
2022-12-23T03:42:10.804Z,100464.47
2022-12-23T03:45:19.360Z,100465.34
2022-12-23T03:47:44.515Z,100471.47
2022-12-23T03:50:17.417Z,100465.38
2022-12-23T03:52:46.575Z,100461.88
2022-12-23T03:55:20.648Z,100467.13
2022-12-23T03:57:50.982Z,100461.88
2022-12-23T04:00:20.485Z,100468.00
2022-12-23T04:03:02.103Z,100482.88
2022-12-23T04:05:36.011Z,100490.75
2022-12-23T04:08:17.310Z,100506.53
2022-12-23T04:10:43.769Z,100502.13
2022-12-23T04:13:10.299Z,100497.75
2022-12-23T04:15:43.491Z,100505.66
2022-12-23T04:18:11.004Z,100513.50
2022-12-23T04:20:37.924Z,100512.66
2022-12-23T04:23:04.498Z,100512.66
2022-12-23T04:25:33.587Z,100516.16
2022-12-23T04:28:00.102Z,100517.91
2022-12-23T04:30:31.664Z,100513.53
2022-12-23T04:33:01.667Z,100510.06
2022-12-23T04:35:28.110Z,100517.94
2022-12-23T04:37:54.537Z,100517.91
2022-12-23T04:40:21.040Z,100512.69
2022-12-23T04:42:47.450Z,100521.44
2022-12-23T04:45:13.935Z,100520.56
2022-12-23T04:47:40.767Z,100507.44
2022-12-23T04:50:08.221Z,100515.31
2022-12-23T04:52:34.641Z,100509.16
2022-12-23T04:55:01.117Z,100502.19
2022-12-23T04:57:27.643Z,100499.53
2022-12-23T04:59:53.975Z,100504.78
2022-12-23T05:02:20.465Z,100495.16
2022-12-23T05:04:46.951Z,100496.06
2022-12-23T05:07:13.288Z,100490.78
2022-12-23T05:09:39.759Z,100499.53
2022-12-23T05:12:06.253Z,100501.31
2022-12-23T05:14:32.866Z,100510.91
2022-12-23T05:17:07.167Z,100507.44
2022-12-23T05:19:33.932Z,100509.19
2022-12-23T05:22:00.327Z,100510.03
2022-12-23T05:24:26.757Z,100519.69
2022-12-23T05:26:59.647Z,100519.66
2022-12-23T05:29:27.049Z,100517.06
2022-12-23T05:31:53.556Z,100527.56
2022-12-23T05:34:20.193Z,100527.50
2022-12-23T05:36:46.623Z,100517.91
2022-12-23T05:39:13.048Z,100519.63
2022-12-23T05:41:39.408Z,100529.28
2022-12-23T05:44:05.850Z,100537.13
2022-12-23T05:46:34.316Z,100529.25
2022-12-23T05:49:00.674Z,100536.28
2022-12-23T05:51:27.070Z,100545.88
2022-12-23T05:53:53.458Z,100539.75
2022-12-23T05:56:19.858Z,100528.38
2022-12-23T05:58:48.534Z,100529.28
2022-12-23T06:01:14.913Z,100529.28
2022-12-23T06:03:41.469Z,100529.28
2022-12-23T06:06:08.237Z,100533.66
2022-12-23T06:08:34.882Z,100528.41
2022-12-23T06:11:07.605Z,100530.13
2022-12-23T06:13:34.301Z,100531.00
2022-12-23T06:16:00.965Z,100532.78
2022-12-23T06:18:27.725Z,100530.16
2022-12-23T06:20:54.228Z,100522.28
2022-12-23T06:23:20.670Z,100514.38
2022-12-23T06:25:47.034Z,100511.75
2022-12-23T06:28:13.472Z,100501.25
2022-12-23T06:30:39.899Z,100509.13
2022-12-23T06:33:06.382Z,100517.88
2022-12-23T06:35:32.729Z,100517.88
2022-12-23T06:37:59.063Z,100526.66
2022-12-23T06:40:26.006Z,100524.91
2022-12-23T06:42:52.441Z,100530.13
2022-12-23T06:45:18.793Z,100540.63
2022-12-23T06:47:45.214Z,100543.25
2022-12-23T06:50:11.783Z,100538.84
2022-12-23T06:52:38.306Z,100544.97
2022-12-23T06:55:05.401Z,100544.97
2022-12-23T06:57:31.832Z,100539.72
2022-12-23T06:59:58.196Z,100536.19
2022-12-23T07:02:25.202Z,100524.84
2022-12-23T07:04:52.060Z,100545.81
2022-12-23T07:07:18.642Z,100543.22
2022-12-23T07:09:45.079Z,100555.47
2022-12-23T07:12:11.491Z,100558.09
2022-12-23T07:14:37.859Z,100558.97
2022-12-23T07:17:04.285Z,100565.09
2022-12-23T07:19:31.015Z,100566.00
2022-12-23T07:21:57.507Z,100565.09
2022-12-23T07:24:24.081Z,100574.75
2022-12-23T07:26:51.144Z,100568.63
2022-12-23T07:29:17.680Z,100572.97
2022-12-23T07:31:44.165Z,100577.34
2022-12-23T07:34:10.617Z,100573.84
2022-12-23T07:36:37.079Z,100576.47
2022-12-23T07:39:08.848Z,100576.47
2022-12-23T07:41:35.272Z,100574.72
2022-12-23T07:44:01.892Z,100565.97
2022-12-23T07:46:28.411Z,100558.97
2022-12-23T07:48:55.018Z,100548.47
2022-12-23T07:51:21.587Z,100547.63
2022-12-23T07:53:50.226Z,100540.63
2022-12-23T07:56:17.171Z,100536.25
2022-12-23T07:58:43.612Z,100528.38
2022-12-23T08:01:10.129Z,100543.25
2022-12-23T08:03:36.762Z,100544.09
2022-12-23T08:06:08.350Z,100548.47
2022-12-23T08:08:35.418Z,100533.63
2022-12-23T08:11:07.668Z,100523.09
2022-12-23T08:13:37.062Z,100526.56
2022-12-23T08:16:05.166Z,100525.72
2022-12-23T08:18:34.119Z,100530.06
2022-12-23T08:21:04.680Z,100530.09
2022-12-23T08:23:31.944Z,100514.31
2022-12-23T08:26:08.612Z,100526.59
2022-12-23T08:28:36.604Z,100521.31
2022-12-23T08:31:23.931Z,100525.72
2022-12-23T08:33:54.089Z,100530.13
2022-12-23T08:36:24.910Z,100508.22
2022-12-23T08:38:53.745Z,100514.34
2022-12-23T08:41:26.136Z,100501.22
2022-12-23T08:43:53.004Z,100501.22
2022-12-23T08:46:19.907Z,100495.97
2022-12-23T08:48:49.486Z,100498.63
2022-12-23T08:51:18.048Z,100503.88
2022-12-23T08:53:44.770Z,100490.72
2022-12-23T08:56:14.936Z,100487.19
2022-12-23T08:58:45.454Z,100484.59
2022-12-23T09:01:15.161Z,100481.97
2022-12-23T09:03:45.007Z,100479.34
2022-12-23T09:06:23.172Z,100478.50
2022-12-23T09:08:53.423Z,100475.88
2022-12-23T09:11:22.744Z,100478.47
2022-12-23T09:13:50.159Z,100477.59
2022-12-23T09:16:17.277Z,100474.09
2022-12-23T09:18:44.286Z,100475.84
2022-12-23T09:21:16.795Z,100477.59
2022-12-23T09:23:43.344Z,100482.81
2022-12-23T09:26:11.108Z,100481.06
2022-12-23T09:28:37.690Z,100472.31
2022-12-23T09:31:11.894Z,100474.09
2022-12-23T09:33:39.941Z,100466.16
2022-12-23T09:36:06.949Z,100463.53
2022-12-23T09:38:33.925Z,100467.03
2022-12-23T09:41:34.842Z,100467.91
2022-12-23T09:44:27.468Z,100465.31
2022-12-23T09:47:00.681Z,100465.28
2022-12-23T09:49:28.536Z,100460.91
2022-12-23T09:52:01.378Z,100449.50
2022-12-23T09:54:34.029Z,100437.28
2022-12-23T09:57:03.756Z,100432.03
2022-12-23T09:59:42.553Z,100426.78
2022-12-23T10:02:45.254Z,100422.38
2022-12-23T10:05:14.992Z,100418.88
2022-12-23T10:08:15.223Z,100419.78
2022-12-23T10:10:52.470Z,100408.38
2022-12-23T10:13:37.534Z,100404.03
2022-12-23T10:16:12.639Z,100401.41
2022-12-23T10:18:45.196Z,100388.25
2022-12-23T10:21:25.113Z,100390.88
2022-12-23T10:23:55.707Z,100384.78
2022-12-23T10:26:28.199Z,100386.50
2022-12-23T10:29:01.380Z,100388.28
2022-12-23T10:32:02.440Z,100383.91
2022-12-23T10:34:50.070Z,100375.16
2022-12-23T10:37:34.387Z,100382.19
2022-12-23T10:40:19.199Z,100374.31
2022-12-23T10:43:09.056Z,100375.16
2022-12-23T10:46:13.502Z,100367.28
2022-12-23T10:49:03.535Z,100367.28
2022-12-23T10:51:37.499Z,100366.44
2022-12-23T10:54:15.214Z,100361.16
2022-12-23T10:56:43.278Z,100361.16
2022-12-23T10:59:15.497Z,100359.41
2022-12-23T11:01:43.385Z,100353.28
2022-12-23T11:04:17.087Z,100339.28
2022-12-23T11:07:10.622Z,100341.03
2022-12-23T11:09:55.144Z,100338.41
2022-12-23T11:12:40.482Z,100335.78
2022-12-23T11:15:28.797Z,100328.78
2022-12-23T11:18:14.531Z,100324.41
2022-12-23T11:20:43.195Z,100325.25
2022-12-23T11:23:26.110Z,100319.16
2022-12-23T11:26:05.229Z,100319.16
2022-12-23T11:28:34.243Z,100313.88
2022-12-23T11:31:13.058Z,100303.38
2022-12-23T11:34:01.777Z,100287.63
2022-12-23T11:36:30.261Z,100290.28
2022-12-23T11:39:11.797Z,100278.88
2022-12-23T11:41:48.544Z,100271.00
2022-12-23T11:44:28.443Z,100261.38
2022-12-23T11:46:55.045Z,100248.25
2022-12-23T11:49:31.428Z,100244.72
2022-12-23T11:52:02.778Z,100244.75
2022-12-23T11:54:29.723Z,100240.38
2022-12-23T11:56:56.881Z,100238.63
2022-12-23T11:59:42.106Z,100230.72
2022-12-23T12:02:20.429Z,100225.50
2022-12-23T12:04:58.949Z,100225.47
2022-12-23T12:07:26.613Z,100222.88
2022-12-23T12:09:57.763Z,100214.09
2022-12-23T12:12:24.384Z,100208.00
2022-12-23T12:14:54.254Z,100215.84
2022-12-23T12:17:33.205Z,100204.47
2022-12-23T12:20:24.140Z,100200.97
2022-12-23T12:23:05.163Z,100190.44
2022-12-23T12:25:48.783Z,100180.84
2022-12-23T12:28:41.057Z,100175.56
2022-12-23T12:31:25.871Z,100164.19
2022-12-23T12:34:24.053Z,100154.59
2022-12-23T12:36:59.989Z,100149.34
2022-12-23T12:39:38.055Z,100142.38
2022-12-23T12:42:14.847Z,100132.72
2022-12-23T12:44:47.982Z,100127.47
2022-12-23T12:47:52.262Z,100117.84
2022-12-23T12:50:23.479Z,100120.44
2022-12-23T12:52:51.701Z,100115.22
2022-12-23T12:55:29.669Z,100115.22
2022-12-23T12:57:56.183Z,100104.69
2022-12-23T13:00:24.335Z,100096.84
2022-12-23T13:03:15.215Z,100095.06
2022-12-23T13:05:55.756Z,100094.19
2022-12-23T13:08:40.257Z,100101.19
2022-12-23T13:11:44.854Z,100092.41
2022-12-23T13:14:22.457Z,100103.78
2022-12-23T13:17:32.443Z,100099.38
2022-12-23T13:20:24.113Z,100106.41
2022-12-23T13:22:55.702Z,100101.16
2022-12-23T13:25:29.493Z,100095.00
2022-12-23T13:27:58.430Z,100105.50
2022-12-23T13:30:32.137Z,100092.41
2022-12-23T13:33:22.707Z,100095.91
2022-12-23T13:36:11.492Z,100094.13
2022-12-23T13:38:51.171Z,100074.00
2022-12-23T13:41:40.085Z,100064.41
2022-12-23T13:44:12.182Z,100067.88
2022-12-23T13:46:46.916Z,100048.63
2022-12-23T13:49:32.339Z,100039.91
2022-12-23T13:52:19.947Z,100042.53
2022-12-23T13:55:21.493Z,100024.16
2022-12-23T13:58:01.490Z,100018.03
2022-12-23T14:00:31.227Z,100006.66
2022-12-23T14:02:57.608Z,100009.28
2022-12-23T14:05:33.015Z,99994.41
2022-12-23T14:08:02.179Z,99995.28
2022-12-23T14:10:30.018Z,99991.78
2022-12-23T14:13:05.929Z,99992.66
2022-12-23T14:15:47.947Z,99977.75
2022-12-23T14:18:20.441Z,99974.22
2022-12-23T14:21:05.709Z,99980.38
2022-12-23T14:23:39.721Z,99986.50
2022-12-23T14:26:41.532Z,99980.34
2022-12-23T14:29:27.767Z,99983.00
2022-12-23T14:31:57.200Z,99993.50
2022-12-23T14:34:26.345Z,99985.66
2022-12-23T14:37:24.300Z,99993.53
2022-12-23T14:39:51.521Z,99986.53
2022-12-23T14:42:33.140Z,99983.91
2022-12-23T14:45:33.582Z,99985.69
2022-12-23T14:48:01.403Z,99987.47
2022-12-23T14:50:34.797Z,99988.34
2022-12-23T14:53:21.771Z,99982.19
2022-12-23T14:55:49.944Z,99988.31
2022-12-23T14:58:16.251Z,99991.84
2022-12-23T15:01:16.971Z,99978.69
2022-12-23T15:03:47.482Z,99973.44
2022-12-23T15:06:21.417Z,99964.72
2022-12-23T15:08:52.595Z,99962.09
2022-12-23T15:11:26.931Z,99970.84
2022-12-23T15:13:54.985Z,99957.72
2022-12-23T15:16:30.738Z,99957.72
2022-12-23T15:19:02.825Z,99975.22
2022-12-23T15:21:36.287Z,99983.97
2022-12-23T15:24:02.881Z,99997.97
2022-12-23T15:26:32.554Z,100002.31
2022-12-23T15:29:00.527Z,99987.44
2022-12-23T15:31:31.416Z,99980.44
2022-12-23T15:34:10.251Z,99975.19
2022-12-23T15:36:43.897Z,99988.28
2022-12-23T15:39:19.279Z,99992.66
2022-12-23T15:41:47.222Z,99969.00
2022-12-23T15:44:20.267Z,99979.53
2022-12-23T15:46:50.801Z,99994.41
2022-12-23T15:49:19.300Z,100002.25
2022-12-23T15:52:07.955Z,99999.63
2022-12-23T15:54:46.417Z,99981.25
2022-12-23T15:57:18.062Z,99970.75
2022-12-23T15:59:44.968Z,99985.63
2022-12-23T16:05:07.978Z,99994.38
2022-12-23T16:07:38.113Z,99982.97
2022-12-23T16:10:25.048Z,99976.84
2022-12-23T16:12:54.202Z,99963.78
2022-12-23T16:15:25.722Z,99977.75
2022-12-23T16:17:52.167Z,99992.66
2022-12-23T16:20:23.758Z,99996.13
2022-12-23T16:22:54.175Z,99994.41
2022-12-23T16:25:50.156Z,99961.16
2022-12-23T16:28:24.503Z,99949.84
2022-12-23T16:30:57.464Z,99960.38
2022-12-23T16:33:34.058Z,99981.38
2022-12-23T16:36:18.793Z,99997.13
2022-12-23T16:38:46.198Z,99988.41
2022-12-23T16:41:12.953Z,99993.63
2022-12-23T16:43:39.466Z,99990.13
2022-12-23T16:46:08.276Z,99991.84
2022-12-23T16:48:36.591Z,99989.22
2022-12-23T16:51:09.418Z,99983.09
2022-12-23T16:53:35.764Z,99976.09
2022-12-23T16:56:02.772Z,99976.09
2022-12-23T16:58:29.828Z,99983.09
2022-12-23T17:01:03.273Z,99993.63
2022-12-23T17:03:29.768Z,99996.22
2022-12-23T17:05:57.670Z,99999.72
2022-12-23T17:08:24.268Z,99992.72
2022-12-23T17:10:51.240Z,99980.50
2022-12-23T17:13:21.017Z,99992.72
2022-12-23T17:15:47.605Z,99992.69
2022-12-23T17:18:17.904Z,100000.59
2022-12-23T17:20:46.157Z,99999.69
2022-12-23T17:23:42.088Z,100004.91
2022-12-23T17:26:08.626Z,99987.44
2022-12-23T17:28:35.094Z,99999.63
2022-12-23T17:31:01.685Z,100004.00
2022-12-23T17:33:31.177Z,99986.53
2022-12-23T17:35:58.697Z,99983.00
2022-12-23T17:38:25.636Z,99988.25
2022-12-23T17:40:52.259Z,99989.13
2022-12-23T17:43:19.110Z,99990.88
2022-12-23T17:45:45.791Z,100003.09
2022-12-23T17:48:20.214Z,99987.34
2022-12-23T17:50:48.860Z,99988.22
2022-12-23T17:53:19.597Z,99995.19
2022-12-23T17:55:46.538Z,99981.19
2022-12-23T17:58:14.218Z,99994.34
2022-12-23T18:00:41.454Z,99989.03
2022-12-23T18:03:20.846Z,100003.94
2022-12-23T18:05:47.493Z,100010.03
2022-12-23T18:08:13.931Z,100008.28
2022-12-23T18:10:41.022Z,100005.63
2022-12-23T18:13:14.373Z,99962.91
2022-12-23T18:15:43.236Z,100013.53
2022-12-23T18:18:26.396Z,100007.38
2022-12-23T18:20:59.985Z,100010.88
2022-12-23T18:23:37.221Z,100010.88
2022-12-23T18:26:03.831Z,100010.00
2022-12-23T18:28:30.301Z,100009.97
2022-12-23T18:30:57.017Z,100013.47
2022-12-23T18:33:28.487Z,100014.34
2022-12-23T18:35:55.001Z,100024.81
2022-12-23T18:38:21.356Z,100033.59
2022-12-23T18:40:52.084Z,100016.94
2022-12-23T18:43:30.735Z,100041.44
2022-12-23T18:45:57.237Z,100037.03
2022-12-23T18:48:23.658Z,100038.78
2022-12-23T18:50:52.070Z,100046.66
2022-12-23T18:53:24.581Z,100041.41
2022-12-23T18:55:52.920Z,100044.88
2022-12-23T18:58:19.468Z,100052.75
2022-12-23T19:00:46.990Z,100058.88
2022-12-23T19:03:33.979Z,100052.72
2022-12-23T19:06:06.508Z,100055.34
2022-12-23T19:08:34.385Z,100052.69
2022-12-23T19:11:01.494Z,100047.47
2022-12-23T19:13:34.169Z,100047.44
2022-12-23T19:16:03.904Z,100046.56
2022-12-23T19:18:33.474Z,100056.19
2022-12-23T19:21:04.331Z,100055.31
2022-12-23T19:23:30.827Z,100057.94
2022-12-23T19:28:42.695Z,100057.94
2022-12-23T19:31:13.707Z,100052.69
2022-12-23T19:33:48.425Z,100065.81
2022-12-23T19:36:22.900Z,100065.81
2022-12-23T19:38:50.019Z,100076.34
2022-12-23T19:41:17.909Z,100072.84
2022-12-23T19:43:46.437Z,100065.81
2022-12-23T19:46:15.292Z,100072.88
2022-12-23T19:48:43.206Z,100064.16
2022-12-23T19:51:13.924Z,100083.41
2022-12-23T19:53:41.548Z,100096.50
2022-12-23T19:56:11.897Z,100095.63
2022-12-23T19:58:41.387Z,100099.16
2022-12-23T20:01:20.166Z,100113.19
2022-12-23T20:03:51.587Z,100100.03
2022-12-23T20:06:39.264Z,100114.06
2022-12-23T20:09:15.979Z,100121.06
2022-12-23T20:11:46.067Z,100116.69
2022-12-23T20:14:21.911Z,100121.06
2022-12-23T20:16:49.307Z,100126.31
2022-12-23T20:19:16.850Z,100128.06
2022-12-23T20:21:45.917Z,100136.78
2022-12-23T20:24:13.788Z,100140.31
2022-12-23T20:26:44.087Z,100147.28
2022-12-23T20:29:10.654Z,100149.94
2022-12-23T20:31:40.191Z,100154.31
2022-12-23T20:34:08.745Z,100157.81
2022-12-23T20:36:36.688Z,100163.94
2022-12-23T20:39:04.718Z,100164.81
2022-12-23T20:41:33.205Z,100164.81
2022-12-23T20:44:33.172Z,100166.59
2022-12-23T20:46:49.272Z,100162.25
2022-12-23T20:49:15.706Z,100174.50
2022-12-23T20:51:42.462Z,100192.03
2022-12-23T20:54:09.473Z,100182.41
2022-12-23T20:56:36.228Z,100171.00
2022-12-23T20:59:03.996Z,100194.66
2022-12-23T21:01:35.344Z,100196.38
2022-12-23T21:04:05.277Z,100200.78
2022-12-23T21:06:32.859Z,100206.91
2022-12-23T21:09:05.121Z,100211.28
2022-12-23T21:11:34.152Z,100210.41
2022-12-23T21:14:06.098Z,100210.41
2022-12-23T21:16:45.512Z,100227.94
2022-12-23T21:19:24.744Z,100234.94
2022-12-23T21:21:56.714Z,100217.44
2022-12-23T21:24:23.399Z,100226.19
2022-12-23T21:26:56.039Z,100231.44
2022-12-23T21:29:22.787Z,100234.09
2022-12-23T21:31:49.413Z,100241.06
2022-12-23T21:34:15.798Z,100242.84
2022-12-23T21:36:42.693Z,100256.88
2022-12-23T21:39:14.872Z,100259.50
2022-12-23T21:41:42.817Z,100263.84
2022-12-23T21:44:11.553Z,100261.25
2022-12-23T21:46:40.631Z,100274.41
2022-12-23T21:49:13.018Z,100280.50
2022-12-23T21:51:41.287Z,100276.16
2022-12-23T21:54:15.242Z,100291.94
2022-12-23T21:56:42.115Z,100285.78
2022-12-23T21:59:13.574Z,100284.88
2022-12-23T22:01:43.950Z,100303.28
2022-12-23T22:04:18.312Z,100305.06
2022-12-23T22:06:46.772Z,100300.66
2022-12-23T22:09:16.131Z,100304.16
2022-12-23T22:11:42.756Z,100315.56
2022-12-23T22:14:12.046Z,100312.94
2022-12-23T22:16:40.699Z,100315.56
2022-12-23T22:19:08.735Z,100319.97
2022-12-23T22:21:39.537Z,100327.84
2022-12-23T22:24:07.347Z,100327.84
2022-12-23T22:26:36.741Z,100340.13
2022-12-23T22:29:06.272Z,100332.25
2022-12-23T22:31:44.836Z,100338.38
2022-12-23T22:34:14.505Z,100333.97
2022-12-23T22:36:40.941Z,100347.13
2022-12-23T22:39:08.254Z,100348.00
2022-12-23T22:41:56.631Z,100369.03
2022-12-23T22:44:25.041Z,100367.28
2022-12-23T22:46:52.542Z,100358.53
2022-12-23T22:49:19.179Z,100368.16
2022-12-23T22:51:46.078Z,100382.19
2022-12-23T22:54:12.548Z,100386.56
2022-12-23T22:56:40.124Z,100375.16
2022-12-23T22:59:06.772Z,100391.81
2022-12-23T23:01:40.599Z,100382.19
2022-12-23T23:04:07.874Z,100389.19
2022-12-23T23:06:41.656Z,100390.94
2022-12-23T23:09:15.345Z,100398.81
2022-12-23T23:11:44.263Z,100391.81
2022-12-23T23:14:11.905Z,100407.59
2022-12-23T23:16:45.096Z,100404.94
2022-12-23T23:19:12.387Z,100398.84
2022-12-23T23:21:39.120Z,100415.47
2022-12-23T23:24:06.099Z,100419.88
2022-12-23T23:26:32.631Z,100425.97
2022-12-23T23:29:00.127Z,100411.97
2022-12-23T23:31:43.688Z,100429.47
2022-12-23T23:34:12.225Z,100426.88
2022-12-23T23:36:38.920Z,100421.59
2022-12-23T23:39:05.310Z,100439.13
2022-12-23T23:41:31.830Z,100431.22
2022-12-23T23:43:58.405Z,100440.88
2022-12-23T23:46:24.921Z,100446.13
2022-12-23T23:48:51.517Z,100447.00
2022-12-23T23:51:19.602Z,100454.00
2022-12-23T23:53:47.309Z,100468.91
2022-12-23T23:56:15.792Z,100459.28
2022-12-23T23:58:44.714Z,100460.13
